createdAt,value
2022-08-17T00:02:26.120Z,7.75
2022-08-17T00:05:33.384Z,9.75
2022-08-17T00:08:39.972Z,9.95
2022-08-17T00:12:40.598Z,9.55
2022-08-17T00:15:08.336Z,8.55
2022-08-17T00:19:06.565Z,8.55
2022-08-17T00:21:56.363Z,9.15
2022-08-17T00:25:07.230Z,9.00
2022-08-17T00:28:09.987Z,8.38
2022-08-17T00:31:13.236Z,8.20
2022-08-17T00:34:15.971Z,8.18
2022-08-17T00:37:18.882Z,8.60
2022-08-17T00:40:21.492Z,7.68
2022-08-17T00:43:35.091Z,8.30
2022-08-17T00:46:41.033Z,8.65
2022-08-17T00:49:44.223Z,8.27
2022-08-17T00:52:54.915Z,8.15
2022-08-17T00:56:01.660Z,9.23
2022-08-17T00:59:07.188Z,7.80
2022-08-17T01:02:14.070Z,8.00
2022-08-17T01:05:23.736Z,8.57
2022-08-17T01:08:31.006Z,8.50
2022-08-17T01:11:36.186Z,8.05
2022-08-17T01:14:41.112Z,8.07
2022-08-17T01:17:45.930Z,9.25
2022-08-17T01:20:51.984Z,9.43
2022-08-17T01:23:54.674Z,8.60
2022-08-17T01:26:57.729Z,7.93
2022-08-17T01:33:05.840Z,9.23
2022-08-17T01:36:09.432Z,8.10
2022-08-17T01:39:23.255Z,10.70
2022-08-17T01:42:38.316Z,8.90
2022-08-17T01:45:44.917Z,8.10
2022-08-17T01:48:47.670Z,8.32
2022-08-17T01:51:51.204Z,8.20
2022-08-17T01:57:57.103Z,8.50
2022-08-17T02:01:02.608Z,7.60
2022-08-17T02:04:08.370Z,7.43
2022-08-17T02:07:10.812Z,9.40
2022-08-17T02:10:20.034Z,9.75
2022-08-17T02:13:23.301Z,12.05
2022-08-17T02:16:26.238Z,9.13
2022-08-17T02:19:39.052Z,8.13
2022-08-17T02:22:44.925Z,9.02
2022-08-17T02:25:50.571Z,8.02
2022-08-17T02:28:53.702Z,8.43
2022-08-17T02:35:01.985Z,8.13
2022-08-17T02:38:06.152Z,9.15
2022-08-17T02:41:09.591Z,8.32
2022-08-17T02:44:12.207Z,8.98
2022-08-17T02:47:15.163Z,7.95
2022-08-17T02:50:24.178Z,11.18
2022-08-17T02:53:27.625Z,15.20
2022-08-17T02:56:38.572Z,10.63
2022-08-17T02:59:46.729Z,8.73
2022-08-17T03:02:51.998Z,8.20
2022-08-17T03:05:55.144Z,8.73
2022-08-17T03:08:57.815Z,11.50
2022-08-17T03:12:12.472Z,8.93
2022-08-17T03:15:19.487Z,9.77
2022-08-17T03:18:25.582Z,9.85
2022-08-17T03:21:28.700Z,9.70
2022-08-17T03:24:31.753Z,8.85
2022-08-17T03:27:34.183Z,9.35
2022-08-17T03:30:37.128Z,8.68
2022-08-17T03:33:39.606Z,9.63
2022-08-17T03:36:42.697Z,10.80
2022-08-17T03:39:45.573Z,8.73
2022-08-17T03:42:48.805Z,7.95
2022-08-17T03:46:11.031Z,8.50
2022-08-17T03:49:50.520Z,9.43
2022-08-17T03:53:11.843Z,8.55
2022-08-17T03:56:33.120Z,8.07
2022-08-17T03:59:36.660Z,9.55
2022-08-17T04:02:40.446Z,9.02
2022-08-17T04:05:43.540Z,9.40
2022-08-17T04:08:46.181Z,8.85
2022-08-17T04:14:54.679Z,10.98
2022-08-17T04:17:58.061Z,9.43
2022-08-17T04:21:00.739Z,9.07
2022-08-17T04:24:05.152Z,12.02
2022-08-17T04:27:07.804Z,10.18
2022-08-17T04:33:17.045Z,9.77
2022-08-17T04:36:21.116Z,9.77
2022-08-17T04:39:26.622Z,12.32
2022-08-17T04:42:29.373Z,10.85
2022-08-17T04:45:32.618Z,9.85
2022-08-17T04:48:38.287Z,10.73
2022-08-17T04:51:54.536Z,11.55
2022-08-17T04:55:04.121Z,10.55
2022-08-17T04:58:07.619Z,9.88
2022-08-17T05:01:10.530Z,11.75
2022-08-17T05:07:37.308Z,12.82
2022-08-17T05:10:45.406Z,9.55
2022-08-17T05:13:50.300Z,9.85
2022-08-17T05:16:53.189Z,12.07
2022-08-17T05:19:55.929Z,9.63
2022-08-17T05:23:01.684Z,12.27
2022-08-17T05:26:04.972Z,12.50
2022-08-17T05:29:10.500Z,9.25
2022-08-17T05:35:39.540Z,12.52
2022-08-17T05:38:42.378Z,10.50
2022-08-17T05:41:47.127Z,11.02
2022-08-17T05:44:49.925Z,13.20
2022-08-17T05:47:52.643Z,14.57
2022-08-17T05:51:00.803Z,11.85
2022-08-17T05:54:14.056Z,11.80
2022-08-17T05:57:35.809Z,15.07
2022-08-17T06:01:01.684Z,12.05
2022-08-17T06:04:23.191Z,12.82
2022-08-17T06:07:49.680Z,12.95
2022-08-17T06:11:16.069Z,13.32
2022-08-17T06:14:36.255Z,12.82
2022-08-17T06:17:39.466Z,10.73
2022-08-17T06:20:56.379Z,13.85
2022-08-17T06:24:23.705Z,11.02
2022-08-17T06:27:38.159Z,12.25
2022-08-17T06:30:59.790Z,11.95
2022-08-17T06:34:08.253Z,13.73
2022-08-17T06:37:48.859Z,14.57
2022-08-17T06:41:02.338Z,14.45
2022-08-17T06:44:50.164Z,13.57
2022-08-17T06:48:24.421Z,14.10
2022-08-17T06:54:39.922Z,14.07
2022-08-17T06:57:47.701Z,11.75
2022-08-17T07:00:58.489Z,11.25
2022-08-17T07:04:15.606Z,15.18
2022-08-17T07:07:39.378Z,12.32
2022-08-17T07:10:52.645Z,10.40
2022-08-17T07:13:58.152Z,10.70
2022-08-17T07:17:06.688Z,10.18
2022-08-17T07:20:14.945Z,8.60
2022-08-17T07:23:30.153Z,10.63
2022-08-17T07:26:32.885Z,9.82
2022-08-17T07:29:49.572Z,10.68
2022-08-17T07:33:02.264Z,9.90
2022-08-17T07:36:05.726Z,9.45
2022-08-17T07:39:09.826Z,9.40
2022-08-17T07:42:12.738Z,9.30
2022-08-17T07:45:35.416Z,11.00
2022-08-17T07:48:40.820Z,9.23
2022-08-17T07:51:43.735Z,9.00
2022-08-17T07:54:46.851Z,9.75
2022-08-17T07:57:57.575Z,14.10
2022-08-17T08:01:10.867Z,8.13
2022-08-17T08:04:49.885Z,7.62
2022-08-17T08:07:57.112Z,8.82
2022-08-17T08:11:04.365Z,11.63
2022-08-17T08:14:30.231Z,9.90
2022-08-17T08:17:45.164Z,8.63
2022-08-17T08:20:54.120Z,7.85
2022-08-17T08:24:20.758Z,7.55
2022-08-17T08:27:40.590Z,8.27
2022-08-17T08:30:50.551Z,9.45
2022-08-17T08:34:58.678Z,9.43
2022-08-17T08:38:07.622Z,8.10
2022-08-17T08:41:34.890Z,9.00
2022-08-17T08:45:00.231Z,7.60
2022-08-17T08:48:22.986Z,8.52
2022-08-17T08:51:57.622Z,8.13
2022-08-17T08:55:15.444Z,9.20
2022-08-17T08:58:51.601Z,8.20
2022-08-17T09:02:18.611Z,10.55
2022-08-17T09:05:27.183Z,8.23
2022-08-17T09:08:48.279Z,8.88
2022-08-17T09:12:08.574Z,7.40
2022-08-17T09:15:27.644Z,8.60
2022-08-17T09:19:02.653Z,15.25
2022-08-17T09:22:20.802Z,9.00
2022-08-17T09:25:29.460Z,7.90
2022-08-17T09:28:42.640Z,7.53
2022-08-17T09:32:17.712Z,7.95
2022-08-17T09:35:25.202Z,7.62
2022-08-17T09:39:01.140Z,8.40
2022-08-17T09:42:14.317Z,8.18
2022-08-17T09:45:42.628Z,8.75
2022-08-17T09:48:57.501Z,7.93
2022-08-17T09:52:23.535Z,7.03
2022-08-17T09:55:52.703Z,10.25
2022-08-17T09:59:17.240Z,7.60
2022-08-17T10:02:40.455Z,7.20
2022-08-17T10:06:02.802Z,7.25
2022-08-17T10:09:22.185Z,7.15
2022-08-17T10:12:30.439Z,6.97
2022-08-17T10:15:46.799Z,6.30
2022-08-17T10:19:08.346Z,5.30
2022-08-17T10:22:44.042Z,5.95
2022-08-17T10:26:04.834Z,6.55
2022-08-17T10:29:11.235Z,5.75
2022-08-17T10:32:32.865Z,5.35
2022-08-17T10:35:43.890Z,5.90
2022-08-17T10:38:49.911Z,5.62
2022-08-17T10:41:57.439Z,5.20
2022-08-17T10:45:15.708Z,5.07
2022-08-17T10:48:26.312Z,8.40
2022-08-17T10:51:41.173Z,6.65
2022-08-17T10:55:06.294Z,5.30
2022-08-17T10:58:22.229Z,5.10
2022-08-17T11:01:38.107Z,5.72
2022-08-17T11:05:06.302Z,5.60
2022-08-17T11:08:30.763Z,5.80
2022-08-17T11:11:56.279Z,6.00
2022-08-17T11:15:23.146Z,5.12
2022-08-17T11:19:08.553Z,5.95
2022-08-17T11:22:20.151Z,7.20
2022-08-17T11:26:08.602Z,5.32
2022-08-17T11:29:24.622Z,6.75
2022-08-17T11:32:27.840Z,5.35
2022-08-17T11:35:47.193Z,5.60
2022-08-17T11:39:01.785Z,5.95
2022-08-17T11:42:38.846Z,5.18
2022-08-17T11:45:57.251Z,5.18
2022-08-17T11:49:40.887Z,5.85
2022-08-17T11:52:47.403Z,7.53
2022-08-17T11:55:52.939Z,6.82
2022-08-17T11:58:56.793Z,5.57
2022-08-17T12:02:01.868Z,6.03
2022-08-17T12:05:17.074Z,6.00
2022-08-17T12:08:21.904Z,6.40
2022-08-17T12:12:13.461Z,5.55
2022-08-17T12:15:28.851Z,4.97
2022-08-17T12:18:35.841Z,5.62
2022-08-17T12:21:48.909Z,5.97
2022-08-17T12:25:16.373Z,5.68
2022-08-17T12:28:29.479Z,5.40
2022-08-17T12:31:43.582Z,5.62
2022-08-17T12:34:48.738Z,5.60
2022-08-17T12:37:52.136Z,5.40
2022-08-17T12:40:57.997Z,5.53
2022-08-17T12:44:15.297Z,6.20
2022-08-17T12:47:22.311Z,5.10
2022-08-17T12:50:28.274Z,5.20
2022-08-17T12:53:35.810Z,8.70
2022-08-17T12:56:39.227Z,7.20
2022-08-17T12:59:45.932Z,4.75
2022-08-17T13:02:53.984Z,8.85
2022-08-17T13:06:08.065Z,5.80
2022-08-17T13:09:14.394Z,5.25
2022-08-17T13:12:26.448Z,5.32
2022-08-17T13:15:38.211Z,5.03
2022-08-17T13:18:50.390Z,5.55
2022-08-17T13:21:56.899Z,6.18
2022-08-17T13:25:07.342Z,5.53
2022-08-17T13:28:18.983Z,5.10
2022-08-17T13:31:52.099Z,5.28
2022-08-17T13:35:12.325Z,6.00
2022-08-17T13:38:47.173Z,6.18
2022-08-17T13:41:55.392Z,5.45
2022-08-17T13:44:58.808Z,4.75
2022-08-17T13:48:11.121Z,5.75
2022-08-17T13:51:29.046Z,6.07
2022-08-17T13:54:33.208Z,5.28
2022-08-17T13:57:36.258Z,5.28
2022-08-17T14:00:40.378Z,5.78
2022-08-17T14:03:44.361Z,5.97
2022-08-17T14:07:01.534Z,6.00
2022-08-17T14:10:06.389Z,5.75
2022-08-17T14:13:09.174Z,4.80
2022-08-17T14:16:11.993Z,4.53
2022-08-17T14:19:15.100Z,4.72
2022-08-17T14:22:30.636Z,5.25
2022-08-17T14:25:33.329Z,5.80
2022-08-17T14:28:38.695Z,5.90
2022-08-17T14:31:58.000Z,5.68
2022-08-17T14:35:04.802Z,5.93
2022-08-17T14:38:07.963Z,4.87
2022-08-17T14:41:11.416Z,5.05
2022-08-17T14:44:14.248Z,4.97
2022-08-17T14:47:17.420Z,5.25
2022-08-17T14:50:21.200Z,4.65
2022-08-17T14:53:25.110Z,6.85
2022-08-17T14:56:28.011Z,5.53
2022-08-17T14:59:38.184Z,5.22
2022-08-17T15:02:55.912Z,4.35
2022-08-17T15:05:59.553Z,4.25
2022-08-17T15:09:02.383Z,11.20
2022-08-17T15:12:06.651Z,5.95
2022-08-17T15:15:13.312Z,5.85
2022-08-17T15:18:16.330Z,4.90
2022-08-17T15:21:19.080Z,5.03
2022-08-17T15:24:21.826Z,6.62
2022-08-17T15:27:32.245Z,4.28
2022-08-17T15:30:35.825Z,4.57
2022-08-17T15:33:38.827Z,5.78
2022-08-17T15:36:49.002Z,4.80
2022-08-17T15:39:52.376Z,6.22
2022-08-17T15:42:55.304Z,6.30
2022-08-17T15:46:12.605Z,4.65
2022-08-17T15:49:17.145Z,5.90
2022-08-17T15:52:24.193Z,6.75
2022-08-17T15:55:30.087Z,6.00
2022-08-17T15:58:34.904Z,4.72
2022-08-17T16:02:53.879Z,4.70
2022-08-17T16:05:12.209Z,4.28
2022-08-17T16:08:20.896Z,5.12
2022-08-17T16:11:26.413Z,5.15
2022-08-17T16:14:32.546Z,4.78
2022-08-17T16:17:40.232Z,4.95
2022-08-17T16:20:44.178Z,6.47
2022-08-17T16:23:49.796Z,6.68
2022-08-17T16:26:52.267Z,4.87
2022-08-17T16:29:55.532Z,4.90
2022-08-17T16:33:00.252Z,4.57
2022-08-17T16:36:08.453Z,5.15
2022-08-17T16:39:10.984Z,4.93
2022-08-17T16:42:31.890Z,5.35
2022-08-17T16:45:36.923Z,5.70
2022-08-17T16:48:40.020Z,7.03
2022-08-17T16:51:42.599Z,6.35
2022-08-17T16:54:47.005Z,6.35
2022-08-17T16:57:50.625Z,4.95
2022-08-17T17:00:54.362Z,4.90
2022-08-17T17:04:02.137Z,5.30
2022-08-17T17:07:33.971Z,5.15
2022-08-17T17:10:46.068Z,5.47
2022-08-17T17:14:01.605Z,4.50
2022-08-17T17:17:11.870Z,4.80
2022-08-17T17:20:22.786Z,4.82
2022-08-17T17:23:35.151Z,5.35
2022-08-17T17:26:47.120Z,5.35
2022-08-17T17:30:07.618Z,6.40
2022-08-17T17:33:42.886Z,6.18
2022-08-17T17:36:54.577Z,5.32
2022-08-17T17:43:34.802Z,5.32
2022-08-17T17:46:37.981Z,5.90
2022-08-17T17:49:43.955Z,5.10
2022-08-17T17:53:08.849Z,5.12
2022-08-17T17:56:43.331Z,6.87
2022-08-17T18:00:00.532Z,4.55
2022-08-17T18:03:39.843Z,5.25
2022-08-17T18:07:04.387Z,4.50
2022-08-17T18:11:04.975Z,5.60
2022-08-17T18:14:46.349Z,8.63
2022-08-17T18:18:14.127Z,5.47
2022-08-17T18:21:22.247Z,6.12
2022-08-17T18:24:38.081Z,5.18
2022-08-17T18:27:51.243Z,7.00
2022-08-17T18:31:26.611Z,7.15
2022-08-17T18:34:47.153Z,10.05
2022-08-17T18:37:53.928Z,6.30
2022-08-17T18:41:05.433Z,7.55
2022-08-17T18:44:35.531Z,6.78
2022-08-17T18:47:54.054Z,7.80
2022-08-17T18:51:00.928Z,6.62
2022-08-17T18:54:18.284Z,5.80
2022-08-17T18:57:31.455Z,6.32
2022-08-17T19:00:40.280Z,7.00
2022-08-17T19:03:43.492Z,6.90
2022-08-17T19:06:46.645Z,6.60
2022-08-17T19:10:28.767Z,7.53
2022-08-17T19:13:36.969Z,6.45
2022-08-17T19:17:05.469Z,7.37
2022-08-17T19:20:19.869Z,10.80
2022-08-17T19:23:31.021Z,8.73
2022-08-17T19:26:54.572Z,6.85
2022-08-17T19:30:07.499Z,6.43
2022-08-17T19:33:11.969Z,6.90
2022-08-17T19:36:25.648Z,7.75
2022-08-17T19:39:40.568Z,7.47
2022-08-17T19:43:10.056Z,6.07
2022-08-17T19:46:41.182Z,6.57
2022-08-17T19:50:07.362Z,6.78
2022-08-17T19:53:47.457Z,6.68
2022-08-17T19:57:39.482Z,8.40
2022-08-17T20:00:51.181Z,6.15
2022-08-17T20:04:03.381Z,6.77
2022-08-17T20:07:30.185Z,6.60
2022-08-17T20:10:48.120Z,6.45
2022-08-17T20:14:09.742Z,6.75
2022-08-17T20:17:12.900Z,7.18
2022-08-17T20:20:36.763Z,10.88
2022-08-17T20:23:53.534Z,8.23
2022-08-17T20:27:00.892Z,7.90
2022-08-17T20:30:11.788Z,10.93
2022-08-17T20:33:37.107Z,10.80
2022-08-17T20:36:57.128Z,8.98
2022-08-17T20:39:59.753Z,8.93
2022-08-17T20:43:33.583Z,9.68
2022-08-17T20:46:37.106Z,9.02
2022-08-17T20:49:44.510Z,9.35
2022-08-17T20:52:59.776Z,8.50
2022-08-17T20:56:02.632Z,13.00
2022-08-17T20:59:07.615Z,7.20
2022-08-17T21:02:19.381Z,9.00
2022-08-17T21:05:34.801Z,10.50
2022-08-17T21:09:19.009Z,8.95
2022-08-17T21:12:42.221Z,10.07
2022-08-17T21:16:09.447Z,7.15
2022-08-17T21:19:22.852Z,8.65
2022-08-17T21:22:43.540Z,8.48
2022-08-17T21:26:12.729Z,7.62
2022-08-17T21:29:31.105Z,10.05
2022-08-17T21:32:38.109Z,7.55
2022-08-17T21:35:49.405Z,9.68
2022-08-17T21:39:00.338Z,12.30
2022-08-17T21:42:04.933Z,8.70
2022-08-17T21:45:30.478Z,9.52
2022-08-17T21:48:43.851Z,7.70
2022-08-17T21:54:57.286Z,6.95
2022-08-17T21:58:22.108Z,8.27
2022-08-17T22:01:28.431Z,11.68
2022-08-17T22:04:37.672Z,9.32
2022-08-17T22:07:42.047Z,8.90
2022-08-17T22:10:48.960Z,11.93
